createdAt,value
2023-02-24T00:00:47.337Z,6.20
2023-02-24T00:03:16.501Z,6.30
2023-02-24T00:05:50.174Z,6.20
2023-02-24T00:08:19.152Z,6.30
2023-02-24T00:10:50.130Z,6.20
2023-02-24T00:13:22.517Z,6.10
2023-02-24T00:16:04.204Z,6.10
2023-02-24T00:18:33.960Z,6.10
2023-02-24T00:21:08.777Z,6.10
2023-02-24T00:23:38.387Z,6.10
2023-02-24T00:26:15.877Z,6.10
2023-02-24T00:28:45.344Z,6.10
2023-02-24T00:31:17.448Z,6.00
2023-02-24T00:33:47.868Z,5.90
2023-02-24T00:36:24.131Z,5.90
2023-02-24T00:38:56.024Z,5.80
2023-02-24T00:41:30.711Z,5.70
2023-02-24T00:44:06.579Z,5.60
2023-02-24T00:46:38.799Z,5.50
2023-02-24T00:49:13.187Z,5.50
2023-02-24T00:51:45.027Z,5.40
2023-02-24T00:54:16.424Z,5.40
2023-02-24T00:56:49.106Z,5.40
2023-02-24T00:59:23.087Z,5.30
2023-02-24T01:01:55.084Z,5.40
2023-02-24T01:04:25.167Z,5.50
2023-02-24T01:07:00.500Z,5.50
2023-02-24T01:09:32.146Z,5.50
2023-02-24T01:12:16.659Z,5.50
2023-02-24T01:14:48.525Z,5.60
2023-02-24T01:17:19.559Z,5.60
2023-02-24T01:19:50.670Z,5.60
2023-02-24T01:22:25.794Z,5.60
2023-02-24T01:24:54.619Z,5.60
2023-02-24T01:27:25.307Z,5.50
2023-02-24T01:29:54.759Z,5.50
2023-02-24T01:32:24.577Z,5.40
2023-02-24T01:34:54.659Z,5.40
2023-02-24T01:37:24.216Z,5.30
2023-02-24T01:39:53.469Z,5.30
2023-02-24T01:42:27.486Z,5.30
2023-02-24T01:45:21.937Z,5.30
2023-02-24T01:47:52.816Z,5.30
2023-02-24T01:50:26.211Z,5.30
2023-02-24T01:52:59.728Z,5.20
2023-02-24T01:55:33.614Z,5.20
2023-02-24T01:58:17.022Z,5.20
2023-02-24T02:00:47.988Z,5.20
2023-02-24T02:03:31.415Z,5.20
2023-02-24T02:06:04.012Z,5.20
2023-02-24T02:08:36.740Z,5.20
2023-02-24T02:11:08.229Z,5.20
2023-02-24T02:13:41.203Z,5.20
2023-02-24T02:16:35.592Z,5.10
2023-02-24T02:19:30.100Z,5.10
2023-02-24T02:22:08.010Z,5.00
2023-02-24T02:24:46.660Z,4.90
2023-02-24T02:27:34.875Z,4.90
2023-02-24T02:30:44.437Z,4.90
2023-02-24T02:33:53.668Z,4.90
2023-02-24T02:36:28.583Z,4.90
2023-02-24T02:39:04.100Z,4.90
2023-02-24T02:41:39.646Z,4.80
2023-02-24T02:44:13.282Z,4.90
2023-02-24T02:46:49.173Z,4.90
2023-02-24T02:49:26.689Z,4.90
2023-02-24T02:51:59.220Z,4.90
2023-02-24T02:54:32.245Z,4.90
2023-02-24T02:57:07.403Z,4.90
2023-02-24T02:59:42.416Z,4.90
2023-02-24T03:02:17.819Z,4.80
2023-02-24T03:04:52.885Z,4.70
2023-02-24T03:07:32.204Z,4.60
2023-02-24T03:10:04.765Z,4.60
2023-02-24T03:12:37.681Z,4.50
2023-02-24T03:15:12.126Z,4.50
2023-02-24T03:17:45.564Z,4.50
2023-02-24T03:20:24.498Z,4.40
2023-02-24T03:23:00.503Z,4.40
2023-02-24T03:25:39.996Z,4.40
2023-02-24T03:28:19.014Z,4.40
2023-02-24T03:30:54.353Z,4.40
2023-02-24T03:33:29.921Z,4.40
2023-02-24T03:36:02.272Z,4.40
2023-02-24T03:38:38.598Z,4.50
2023-02-24T03:41:11.633Z,4.40
2023-02-24T03:43:46.772Z,4.50
2023-02-24T03:46:17.441Z,4.50
2023-02-24T03:48:56.062Z,4.60
2023-02-24T03:51:26.838Z,4.50
2023-02-24T03:54:12.767Z,4.50
2023-02-24T03:56:58.286Z,4.50
2023-02-24T03:59:43.370Z,4.50
2023-02-24T04:02:20.208Z,4.40
2023-02-24T04:04:56.641Z,4.30
2023-02-24T04:07:43.775Z,4.30
2023-02-24T04:10:20.339Z,4.30
2023-02-24T04:12:57.870Z,4.30
2023-02-24T04:15:31.483Z,4.30
2023-02-24T04:18:04.720Z,4.30
2023-02-24T04:20:40.268Z,4.30
2023-02-24T04:23:16.657Z,4.30
2023-02-24T04:25:56.533Z,4.30
2023-02-24T04:28:30.026Z,4.20
2023-02-24T04:31:06.319Z,4.20
2023-02-24T04:33:38.768Z,4.20
2023-02-24T04:36:13.206Z,4.20
2023-02-24T04:38:46.730Z,4.20
2023-02-24T04:41:21.955Z,4.20
2023-02-24T04:43:51.444Z,4.20
2023-02-24T04:46:20.990Z,4.10
2023-02-24T04:48:51.532Z,4.10
2023-02-24T04:51:21.416Z,4.10
2023-02-24T04:53:55.811Z,4.00
2023-02-24T04:56:24.755Z,4.00
2023-02-24T04:58:55.062Z,4.00
2023-02-24T05:01:24.393Z,4.00
2023-02-24T05:03:55.007Z,4.00
2023-02-24T05:06:26.059Z,4.00
2023-02-24T05:08:57.104Z,4.10
2023-02-24T05:11:28.113Z,4.10
2023-02-24T05:13:57.355Z,4.20
2023-02-24T05:16:29.125Z,4.10
2023-02-24T05:19:12.339Z,4.10
2023-02-24T05:21:42.535Z,4.10
2023-02-24T05:24:17.458Z,4.10
2023-02-24T05:26:49.533Z,4.10
2023-02-24T05:29:18.752Z,4.10
2023-02-24T05:31:48.450Z,4.20
2023-02-24T05:34:17.699Z,4.20
2023-02-24T05:36:46.935Z,4.20
2023-02-24T05:39:20.768Z,4.20
2023-02-24T05:41:54.881Z,4.10
2023-02-24T05:44:26.772Z,4.20
2023-02-24T05:46:59.353Z,4.20
2023-02-24T05:49:33.614Z,4.30
2023-02-24T05:52:08.791Z,4.30
2023-02-24T05:54:42.301Z,4.50
2023-02-24T05:57:14.228Z,4.50
2023-02-24T05:59:45.254Z,4.40
2023-02-24T06:02:17.440Z,4.40
2023-02-24T06:04:51.753Z,4.30
2023-02-24T06:07:25.447Z,4.30
2023-02-24T06:09:59.031Z,4.20
2023-02-24T06:12:30.414Z,4.40
2023-02-24T06:15:00.100Z,4.40
2023-02-24T06:17:30.318Z,4.50
2023-02-24T06:20:00.349Z,4.50
2023-02-24T06:22:30.099Z,4.50
2023-02-24T06:25:00.615Z,4.60
2023-02-24T06:27:29.608Z,4.60
2023-02-24T06:29:58.371Z,4.70
2023-02-24T06:32:28.388Z,4.70
2023-02-24T06:34:57.714Z,4.60
2023-02-24T06:37:26.650Z,4.60
2023-02-24T06:39:55.540Z,4.60
2023-02-24T06:42:25.963Z,4.60
2023-02-24T06:44:55.488Z,4.60
2023-02-24T06:47:24.435Z,4.60
2023-02-24T06:49:53.832Z,4.60
2023-02-24T06:52:22.655Z,4.70
2023-02-24T06:54:52.648Z,4.70
2023-02-24T06:57:23.918Z,4.70
2023-02-24T06:59:56.420Z,4.70
2023-02-24T07:02:30.320Z,4.70
2023-02-24T07:04:59.376Z,4.70
2023-02-24T07:07:29.270Z,4.70
2023-02-24T07:09:58.247Z,4.70
2023-02-24T07:12:27.193Z,4.60
2023-02-24T07:14:58.635Z,4.50
2023-02-24T07:17:27.514Z,4.60
2023-02-24T07:19:57.673Z,4.60
2023-02-24T07:22:26.662Z,4.60
2023-02-24T07:25:00.840Z,4.60
2023-02-24T07:27:30.274Z,4.70
2023-02-24T07:30:06.351Z,4.70
2023-02-24T07:32:35.669Z,4.80
2023-02-24T07:35:04.972Z,4.80
2023-02-24T07:37:35.054Z,4.80
2023-02-24T07:40:05.194Z,4.90
2023-02-24T07:42:35.684Z,4.90
2023-02-24T07:45:11.724Z,5.00
2023-02-24T07:47:42.694Z,5.00
2023-02-24T07:50:15.161Z,5.10
2023-02-24T07:52:44.109Z,5.10
2023-02-24T07:55:13.510Z,5.10
2023-02-24T07:57:48.704Z,5.10
2023-02-24T08:00:21.062Z,5.20
2023-02-24T08:02:52.494Z,5.10
2023-02-24T08:05:22.033Z,5.00
2023-02-24T08:07:51.176Z,5.00
2023-02-24T08:10:28.013Z,5.00
2023-02-24T08:13:03.547Z,5.00
2023-02-24T08:15:36.475Z,5.00
2023-02-24T08:18:06.232Z,5.00
2023-02-24T08:20:52.285Z,5.10
2023-02-24T08:23:23.747Z,5.10
2023-02-24T08:25:54.226Z,5.00
2023-02-24T08:28:27.086Z,5.10
2023-02-24T08:30:57.764Z,5.20
2023-02-24T08:33:30.403Z,5.20
2023-02-24T08:36:02.485Z,5.20
2023-02-24T08:38:42.471Z,5.40
2023-02-24T08:41:18.522Z,5.50
2023-02-24T08:43:48.762Z,5.50
2023-02-24T08:46:26.701Z,5.70
2023-02-24T08:48:57.693Z,5.80
2023-02-24T08:51:30.169Z,5.80
2023-02-24T08:54:01.296Z,5.70
2023-02-24T08:56:35.155Z,5.70
2023-02-24T08:59:06.662Z,5.80
2023-02-24T09:01:40.388Z,5.70
2023-02-24T09:04:12.187Z,5.70
2023-02-24T09:06:45.612Z,5.80
2023-02-24T09:09:18.835Z,5.90
2023-02-24T09:11:49.750Z,5.90
2023-02-24T09:14:29.199Z,5.90
2023-02-24T09:17:06.768Z,5.90
2023-02-24T09:20:01.857Z,5.90
2023-02-24T09:22:33.528Z,5.90
2023-02-24T09:25:21.706Z,6.00
2023-02-24T09:27:57.637Z,6.00
2023-02-24T09:30:39.004Z,6.20
2023-02-24T09:33:18.389Z,6.10
2023-02-24T09:36:21.667Z,6.00
2023-02-24T09:39:16.038Z,6.10
2023-02-24T09:41:57.241Z,6.00
2023-02-24T09:44:34.224Z,6.10
2023-02-24T09:47:13.824Z,6.30
2023-02-24T09:49:56.727Z,6.30
2023-02-24T09:52:40.595Z,6.20
2023-02-24T09:55:25.506Z,6.20
2023-02-24T09:58:20.485Z,6.30
2023-02-24T10:00:58.808Z,6.30
2023-02-24T10:03:48.480Z,6.20
2023-02-24T10:06:23.105Z,6.10
2023-02-24T10:08:59.717Z,6.20
2023-02-24T10:11:37.253Z,6.30
2023-02-24T10:14:09.718Z,6.20
2023-02-24T10:16:46.580Z,6.20
2023-02-24T10:19:26.784Z,6.20
2023-02-24T10:22:04.902Z,6.20
2023-02-24T10:24:41.663Z,6.10
2023-02-24T10:27:17.501Z,6.10
2023-02-24T10:30:01.448Z,6.00
2023-02-24T10:32:39.023Z,6.00
2023-02-24T10:35:15.044Z,6.10
2023-02-24T10:37:47.009Z,6.10
2023-02-24T10:40:27.279Z,6.10
2023-02-24T10:43:10.918Z,6.10
2023-02-24T10:45:46.152Z,6.10
2023-02-24T10:48:40.823Z,6.10
2023-02-24T10:51:21.183Z,5.90
2023-02-24T10:54:10.416Z,5.90
2023-02-24T10:56:44.989Z,5.80
2023-02-24T10:59:41.998Z,5.70
2023-02-24T11:02:33.162Z,5.60
2023-02-24T11:05:27.641Z,5.50
2023-02-24T11:08:16.337Z,5.40
2023-02-24T11:10:59.272Z,5.10
2023-02-24T11:13:46.146Z,5.00
2023-02-24T11:16:47.021Z,4.90
2023-02-24T11:19:17.098Z,4.80
2023-02-24T11:21:47.308Z,4.70
2023-02-24T11:24:23.643Z,4.60
2023-02-24T11:26:55.201Z,4.60
2023-02-24T11:29:43.910Z,4.60
2023-02-24T11:32:27.600Z,4.60
2023-02-24T11:35:06.370Z,4.50
2023-02-24T11:37:41.962Z,4.50
2023-02-24T11:40:18.962Z,4.50
2023-02-24T11:42:53.809Z,4.40
2023-02-24T11:45:31.271Z,4.40
2023-02-24T11:48:05.025Z,4.40
2023-02-24T11:50:46.734Z,4.40
2023-02-24T11:53:25.039Z,4.40
2023-02-24T11:56:00.115Z,4.40
2023-02-24T11:58:40.067Z,4.40
2023-02-24T12:01:16.476Z,4.30
2023-02-24T12:03:54.068Z,4.40
2023-02-24T12:06:32.028Z,4.40
2023-02-24T12:09:09.769Z,4.40
2023-02-24T12:11:48.034Z,4.50
2023-02-24T12:14:35.547Z,4.50
2023-02-24T12:17:18.616Z,4.40
2023-02-24T12:19:59.883Z,4.40
2023-02-24T12:22:35.385Z,4.40
2023-02-24T12:25:05.755Z,4.40
2023-02-24T12:27:49.036Z,4.50
2023-02-24T12:30:50.774Z,4.60
2023-02-24T12:33:41.327Z,4.60
2023-02-24T12:36:22.190Z,4.50
2023-02-24T12:39:00.822Z,4.50
2023-02-24T12:41:47.107Z,4.50
2023-02-24T12:44:27.064Z,4.60
2023-02-24T12:47:06.066Z,4.60
2023-02-24T12:49:48.415Z,4.60
2023-02-24T12:52:25.412Z,4.60
2023-02-24T12:55:02.007Z,4.50
2023-02-24T12:57:42.676Z,4.50
2023-02-24T13:00:19.072Z,4.50
2023-02-24T13:02:59.594Z,4.50
2023-02-24T13:05:35.670Z,4.50
2023-02-24T13:08:21.355Z,4.60
2023-02-24T13:10:59.108Z,4.60
2023-02-24T13:13:36.347Z,4.60
2023-02-24T13:16:05.527Z,4.60
2023-02-24T13:18:39.789Z,4.70
2023-02-24T13:21:23.685Z,4.70
2023-02-24T13:24:00.283Z,4.60
2023-02-24T13:26:31.500Z,4.60
2023-02-24T13:29:14.917Z,4.70
2023-02-24T13:31:47.024Z,4.70
2023-02-24T13:34:33.767Z,4.80
2023-02-24T13:37:03.027Z,4.80
2023-02-24T13:39:36.936Z,4.80
2023-02-24T13:42:19.856Z,4.70
2023-02-24T13:44:51.323Z,4.80
2023-02-24T13:47:59.756Z,4.90
2023-02-24T13:50:39.132Z,4.80
2023-02-24T13:53:24.190Z,4.80
2023-02-24T13:56:11.143Z,4.90
2023-02-24T13:58:59.036Z,4.90
2023-02-24T14:01:31.647Z,4.90
2023-02-24T14:04:16.265Z,4.90
2023-02-24T14:06:54.636Z,4.90
2023-02-24T14:09:28.759Z,4.90
2023-02-24T14:12:02.175Z,4.90
2023-02-24T14:14:33.716Z,4.90
2023-02-24T14:17:03.103Z,4.90
2023-02-24T14:19:32.546Z,4.90
2023-02-24T14:22:03.991Z,4.90
2023-02-24T14:24:33.562Z,5.00
2023-02-24T14:27:04.382Z,5.00
2023-02-24T14:29:43.967Z,5.00
2023-02-24T14:32:25.882Z,5.10
2023-02-24T14:34:55.997Z,5.10
2023-02-24T14:37:30.621Z,5.10
2023-02-24T14:40:06.530Z,5.10
2023-02-24T14:42:49.449Z,5.20
2023-02-24T14:45:21.965Z,5.30
2023-02-24T14:47:52.056Z,5.30
2023-02-24T14:50:25.954Z,5.40
2023-02-24T14:53:01.073Z,5.40
2023-02-24T14:55:35.634Z,5.40
2023-02-24T14:58:10.813Z,5.40
2023-02-24T15:00:47.657Z,5.40
2023-02-24T16:15:16.969Z,6.10
2023-02-24T16:18:14.764Z,6.00
2023-02-24T16:20:57.530Z,6.00
2023-02-24T19:08:59.144Z,5.20
2023-02-24T19:20:34.565Z,5.10
2023-02-24T19:29:59.473Z,5.30
2023-02-24T20:04:38.475Z,4.40
2023-02-24T20:22:40.932Z,4.30
2023-02-24T20:25:13.194Z,4.40
2023-02-24T20:38:46.189Z,4.30
2023-02-24T20:58:00.117Z,4.20
2023-02-24T21:02:10.335Z,4.00
2023-02-24T22:58:21.550Z,4.10
2023-02-24T23:00:51.573Z,4.00
2023-02-24T23:03:23.161Z,3.90
2023-02-24T23:05:58.881Z,3.90
2023-02-24T23:08:32.302Z,3.90
2023-02-24T23:11:07.524Z,3.90
2023-02-24T23:13:38.492Z,3.90
2023-02-24T23:16:11.484Z,3.90
2023-02-24T23:18:42.546Z,4.00
2023-02-24T23:21:13.054Z,4.10
2023-02-24T23:23:44.821Z,4.10
2023-02-24T23:26:13.906Z,4.20
2023-02-24T23:28:43.634Z,4.20
2023-02-24T23:31:19.121Z,4.20
2023-02-24T23:33:48.276Z,4.20
2023-02-24T23:36:17.755Z,4.20
2023-02-24T23:38:49.022Z,4.30
2023-02-24T23:41:18.409Z,4.30
2023-02-24T23:43:48.961Z,4.30
2023-02-24T23:46:18.006Z,4.20
2023-02-24T23:48:47.583Z,4.30
2023-02-24T23:51:17.459Z,4.30
2023-02-24T23:53:50.226Z,4.30
2023-02-24T23:56:22.050Z,4.30
2023-02-24T23:58:52.889Z,4.20
